createdAt,value
2017-06-23T01:25:49.015Z,1005.4
2017-06-23T01:26:50.656Z,1005.4
2017-06-23T01:27:52.297Z,1005.4
2017-06-23T01:28:53.941Z,1005.4
2017-06-23T01:29:55.804Z,1005.3
2017-06-23T01:30:57.475Z,1005.4
2017-06-23T01:31:59.113Z,1005.3
2017-06-23T01:33:00.755Z,1005.3
2017-06-23T01:34:02.390Z,1005.3
2017-06-23T01:35:04.036Z,1005.2
2017-06-23T01:36:05.678Z,1005.2
2017-06-23T01:37:07.318Z,1005.3
2017-06-23T01:38:08.980Z,1005.4
2017-06-23T01:39:10.620Z,1005.3
2017-06-23T01:40:12.255Z,1005.3
2017-06-23T01:41:13.955Z,1005.4
2017-06-23T01:42:15.599Z,1005.4
2017-06-23T01:43:17.254Z,1005.3
2017-06-23T01:44:18.905Z,1005.4
2017-06-23T01:45:20.574Z,1005.4
2017-06-23T01:46:22.251Z,1005.4
2017-06-23T01:47:23.937Z,1005.4
2017-06-23T01:48:25.607Z,1005.3
2017-06-23T01:49:27.333Z,1005.3
2017-06-23T01:50:29.006Z,1005.4
2017-06-23T01:51:30.672Z,1005.4
2017-06-23T01:52:33.081Z,1005.4
2017-06-23T01:53:34.792Z,1005.3
2017-06-23T01:54:36.460Z,1005.3
2017-06-23T01:55:38.106Z,1005.4
2017-06-23T01:56:39.764Z,1005.4
2017-06-23T01:57:41.426Z,1005.4
2017-06-23T01:58:43.125Z,1005.4
2017-06-23T01:59:44.832Z,1005.3
2017-06-23T02:00:46.494Z,1005.3
2017-06-23T02:01:48.146Z,1005.3
2017-06-23T02:02:49.820Z,1005.3
2017-06-23T02:03:51.492Z,1005.4
2017-06-23T02:04:53.292Z,1005.3
2017-06-23T02:05:54.942Z,1005.4
2017-06-23T02:06:56.607Z,1005.4
2017-06-23T02:07:58.345Z,1005.3
2017-06-23T02:09:00.011Z,1005.3
2017-06-23T02:10:01.680Z,1005.3
2017-06-23T02:11:03.379Z,1005.3
2017-06-23T02:12:05.025Z,1005.3
2017-06-23T02:13:06.667Z,1005.4
2017-06-23T02:14:08.341Z,1005.3
2017-06-23T02:15:10.008Z,1005.3
2017-06-23T02:16:11.652Z,1005.3
2017-06-23T02:17:13.317Z,1005.3
2017-06-23T02:18:14.977Z,1005.3
2017-06-23T02:19:16.708Z,1005.4
2017-06-23T02:20:18.413Z,1005.4
2017-06-23T02:21:20.060Z,1005.4
2017-06-23T02:22:21.757Z,1005.4
2017-06-23T02:23:23.457Z,1005.4
2017-06-23T02:24:25.117Z,1005.4
2017-06-23T02:25:26.794Z,1005.4
2017-06-23T02:26:28.456Z,1005.4
2017-06-23T02:27:30.127Z,1005.4
2017-06-23T02:28:31.777Z,1005.5
2017-06-23T02:29:33.440Z,1005.4
2017-06-23T02:30:35.105Z,1005.5
2017-06-23T02:31:36.755Z,1005.4
2017-06-23T02:32:38.421Z,1005.4
2017-06-23T02:33:40.072Z,1005.4
2017-06-23T02:34:41.723Z,1005.4
2017-06-23T02:35:43.427Z,1005.4
2017-06-23T02:36:45.080Z,1005.4
2017-06-23T02:37:46.727Z,1005.4
2017-06-23T02:38:48.397Z,1005.5
2017-06-23T02:39:50.054Z,1005.4
2017-06-23T02:40:51.878Z,1005.4
2017-06-23T02:41:53.559Z,1005.4
2017-06-23T02:42:55.273Z,1005.5
2017-06-23T02:43:56.930Z,1005.4
2017-06-23T02:44:58.645Z,1005.4
2017-06-23T02:46:01.075Z,1005.5
2017-06-23T02:47:02.774Z,1005.5
2017-06-23T02:48:04.417Z,1005.5
2017-06-23T02:49:06.078Z,1005.5
2017-06-23T02:50:07.824Z,1005.5
2017-06-23T02:51:09.504Z,1005.5
2017-06-23T02:52:11.171Z,1005.4
2017-06-23T02:53:12.848Z,1005.5
2017-06-23T02:54:14.503Z,1005.5
2017-06-23T02:55:16.157Z,1005.4
2017-06-23T02:56:18.571Z,1005.5
2017-06-23T02:57:20.248Z,1005.5
2017-06-23T02:58:21.903Z,1005.5
2017-06-23T02:59:23.582Z,1005.5
2017-06-23T03:00:25.311Z,1005.5
2017-06-23T03:01:26.951Z,1005.5
2017-06-23T03:02:28.633Z,1005.5
2017-06-23T03:03:30.296Z,1005.5
2017-06-23T03:04:31.997Z,1005.5
2017-06-23T03:05:33.658Z,1005.5
2017-06-23T03:06:36.077Z,1005.4
2017-06-23T03:07:37.810Z,1005.5
2017-06-23T03:08:39.491Z,1005.4
2017-06-23T03:09:41.161Z,1005.5
2017-06-23T03:10:42.843Z,1005.4
2017-06-23T03:11:44.486Z,1005.5
2017-06-23T03:12:46.131Z,1005.5
2017-06-23T03:13:47.946Z,1005.5
2017-06-23T03:14:49.608Z,1005.5
2017-06-23T03:15:51.359Z,1005.6
2017-06-23T03:16:53.036Z,1005.5
2017-06-23T03:17:54.732Z,1005.5
2017-06-23T03:18:56.408Z,1005.5
2017-06-23T03:19:58.109Z,1005.6
2017-06-23T03:20:59.821Z,1005.6
2017-06-23T03:22:01.518Z,1005.6
2017-06-23T03:23:03.158Z,1005.6
2017-06-23T03:24:04.815Z,1005.6
2017-06-23T03:25:06.479Z,1005.6
2017-06-23T03:26:08.162Z,1005.6
2017-06-23T03:27:09.844Z,1005.6
2017-06-23T03:28:11.508Z,1005.7
2017-06-23T03:29:13.208Z,1005.7
2017-06-23T03:30:14.870Z,1005.7
2017-06-23T03:31:16.520Z,1005.7
2017-06-23T03:32:18.216Z,1005.7
2017-06-23T03:33:19.879Z,1005.8
2017-06-23T03:34:21.551Z,1005.7
2017-06-23T03:35:23.240Z,1005.7
2017-06-23T03:36:24.895Z,1005.7
2017-06-23T03:37:26.570Z,1005.6
2017-06-23T03:38:28.277Z,1005.7
2017-06-23T03:39:29.928Z,1005.7
2017-06-23T03:40:31.627Z,1005.7
2017-06-23T03:41:33.297Z,1005.7
2017-06-23T03:42:34.958Z,1005.7
2017-06-23T03:43:36.645Z,1005.8
2017-06-23T03:44:38.330Z,1005.8
2017-06-23T03:45:39.998Z,1005.8
2017-06-23T03:46:41.667Z,1005.8
2017-06-23T03:47:43.385Z,1005.8
2017-06-23T03:48:45.071Z,1005.8
2017-06-23T03:49:46.778Z,1005.8
2017-06-23T03:50:48.466Z,1005.8
2017-06-23T03:51:50.121Z,1005.8
2017-06-23T03:52:52.121Z,1005.9
2017-06-23T03:53:54.103Z,1005.9
2017-06-23T03:54:56.034Z,1005.9
2017-06-23T03:55:57.827Z,1005.8
2017-06-23T03:56:59.585Z,1005.9
2017-06-23T03:58:01.706Z,1005.9
2017-06-23T03:59:03.975Z,1005.9
2017-06-23T04:00:05.617Z,1005.9
2017-06-23T04:01:07.316Z,1005.9
2017-06-23T04:02:08.967Z,1005.9
2017-06-23T04:03:10.651Z,1006.0
2017-06-23T04:04:12.311Z,1006.0
2017-06-23T04:05:13.961Z,1006.0
2017-06-23T04:06:15.619Z,1006.0
2017-06-23T04:07:17.260Z,1006.0
2017-06-23T04:08:19.582Z,1006.0
2017-06-23T04:09:21.249Z,1006.0
2017-06-23T04:10:22.911Z,1006.0
2017-06-23T04:11:24.631Z,1006.0
2017-06-23T04:12:26.276Z,1006.0
2017-06-23T04:13:27.949Z,1006.0
2017-06-23T04:14:29.609Z,1006.0
2017-06-23T04:15:31.284Z,1006.0
2017-06-23T04:16:32.961Z,1006.0
2017-06-23T04:17:34.614Z,1006.1
2017-06-23T04:18:37.089Z,1006.0
2017-06-23T04:19:38.747Z,1006.0
2017-06-23T04:20:40.396Z,1006.1
2017-06-23T04:21:42.073Z,1006.1
2017-06-23T04:22:43.717Z,1006.1
2017-06-23T04:23:45.363Z,1006.0
2017-06-23T04:24:47.014Z,1006.1
2017-06-23T04:25:48.708Z,1006.1
2017-06-23T04:26:50.407Z,1006.1
2017-06-23T04:27:52.070Z,1006.1
2017-06-23T04:28:54.590Z,1006.0
2017-06-23T04:29:56.252Z,1006.2
2017-06-23T04:30:57.945Z,1006.2
2017-06-23T04:31:59.620Z,1006.2
2017-06-23T04:33:01.261Z,1006.2
2017-06-23T04:34:03.013Z,1006.2
2017-06-23T04:35:04.680Z,1006.2
2017-06-23T04:36:06.343Z,1006.2
2017-06-23T04:37:08.000Z,1006.2
2017-06-23T04:38:09.679Z,1006.2
2017-06-23T04:39:11.394Z,1006.3
2017-06-23T04:40:13.503Z,1006.3
2017-06-23T04:41:15.155Z,1006.3
2017-06-23T04:42:16.804Z,1006.2
2017-06-23T04:43:18.491Z,1006.3
2017-06-23T04:44:20.466Z,1006.3
2017-06-23T04:45:22.354Z,1006.3
2017-06-23T04:46:24.021Z,1006.4
2017-06-23T04:47:25.684Z,1006.4
2017-06-23T04:48:27.778Z,1006.4
2017-06-23T04:49:29.439Z,1006.4
2017-06-23T04:50:31.499Z,1006.4
2017-06-23T04:51:33.206Z,1006.4
2017-06-23T04:52:34.876Z,1006.4
2017-06-23T04:53:36.540Z,1006.4
2017-06-23T04:54:38.232Z,1006.4
2017-06-23T04:55:40.025Z,1006.4
2017-06-23T04:56:41.963Z,1006.5
2017-06-23T04:57:43.659Z,1006.5
2017-06-23T04:58:45.323Z,1006.5
2017-06-23T04:59:46.984Z,1006.5
2017-06-23T05:00:48.709Z,1006.5
2017-06-23T05:01:50.372Z,1006.4
2017-06-23T05:02:52.033Z,1006.6
2017-06-23T05:03:53.726Z,1006.5
2017-06-23T05:04:55.380Z,1006.6
2017-06-23T05:05:57.040Z,1006.6
2017-06-23T05:06:58.701Z,1006.6
2017-06-23T05:08:00.368Z,1006.6
2017-06-23T05:09:02.030Z,1006.7
2017-06-23T05:10:04.051Z,1006.6
2017-06-23T05:11:05.720Z,1006.7
2017-06-23T05:12:07.407Z,1006.6
2017-06-23T05:13:09.118Z,1006.7
2017-06-23T05:14:10.770Z,1006.6
2017-06-23T05:15:12.455Z,1006.7
2017-06-23T05:16:14.142Z,1006.7
2017-06-23T05:17:15.810Z,1006.7
2017-06-23T05:18:17.727Z,1006.7
2017-06-23T05:19:19.564Z,1006.7
2017-06-23T05:20:21.513Z,1006.7
2017-06-23T05:21:23.190Z,1006.8
2017-06-23T05:22:25.042Z,1006.8
2017-06-23T05:23:27.900Z,1006.8
2017-06-23T05:24:29.562Z,1006.8
2017-06-23T05:25:31.472Z,1006.8
2017-06-23T05:26:33.569Z,1006.8
2017-06-23T05:27:35.281Z,1006.8
2017-06-23T05:28:36.955Z,1006.8
2017-06-23T05:29:38.919Z,1006.8
2017-06-23T05:30:40.591Z,1006.8
2017-06-23T05:31:42.375Z,1006.9
2017-06-23T05:32:44.042Z,1006.9
2017-06-23T05:33:45.953Z,1007.0
2017-06-23T05:34:47.894Z,1006.9
2017-06-23T05:35:49.595Z,1006.9
2017-06-23T05:36:51.322Z,1007.0
2017-06-23T05:37:52.967Z,1007.1
2017-06-23T05:38:54.620Z,1007.1
2017-06-23T05:39:56.298Z,1007.0
2017-06-23T05:40:58.262Z,1007.0
2017-06-23T05:41:59.892Z,1007.0
2017-06-23T05:43:01.565Z,1007.0
2017-06-23T05:44:03.255Z,1007.1
2017-06-23T05:45:04.927Z,1007.0
2017-06-23T05:46:06.591Z,1007.1
2017-06-23T05:47:08.297Z,1007.0
2017-06-23T05:48:09.950Z,1007.1
2017-06-23T05:49:11.637Z,1007.1
2017-06-23T05:50:13.353Z,1007.1
2017-06-23T05:51:15.028Z,1007.1
2017-06-23T05:52:16.702Z,1007.2
2017-06-23T05:53:18.385Z,1007.2
2017-06-23T05:54:20.035Z,1007.1
2017-06-23T05:55:21.676Z,1007.1
2017-06-23T05:56:23.392Z,1007.1
2017-06-23T05:57:25.087Z,1007.1
2017-06-23T05:58:26.746Z,1007.1
2017-06-23T05:59:29.171Z,1007.1
2017-06-23T06:00:30.834Z,1007.1
2017-06-23T06:01:32.569Z,1007.1
2017-06-23T06:02:34.253Z,1007.1
2017-06-23T06:03:35.941Z,1007.1
2017-06-23T06:04:37.679Z,1007.1
2017-06-23T06:05:40.590Z,1007.2
2017-06-23T06:06:42.302Z,1007.2
2017-06-23T06:07:44.929Z,1007.2
2017-06-23T06:08:47.017Z,1007.1
2017-06-23T06:09:48.737Z,1007.2
2017-06-23T06:10:50.415Z,1007.3
2017-06-23T06:11:52.109Z,1007.2
2017-06-23T06:12:53.793Z,1007.2
2017-06-23T06:13:55.722Z,1007.2
2017-06-23T06:14:57.500Z,1007.2
2017-06-23T06:15:59.239Z,1007.2
2017-06-23T06:17:00.904Z,1007.2
2017-06-23T06:18:05.776Z,1007.2
2017-06-23T06:19:08.153Z,1007.1
2017-06-23T06:20:09.823Z,1007.1
2017-06-23T06:21:12.530Z,1007.1
2017-06-23T06:22:17.156Z,1007.2
2017-06-23T06:23:18.878Z,1007.3
2017-06-23T06:24:20.556Z,1007.2
2017-06-23T06:25:22.235Z,1007.2
2017-06-23T06:26:24.044Z,1007.2
2017-06-23T06:27:26.116Z,1007.2
2017-06-23T06:28:27.893Z,1007.2
2017-06-23T06:29:31.683Z,1007.2
2017-06-23T06:30:33.298Z,1007.3
2017-06-23T06:31:34.972Z,1007.3
2017-06-23T06:32:36.646Z,1007.3
2017-06-23T06:33:38.354Z,1007.3
2017-06-23T06:34:40.317Z,1007.2
2017-06-23T06:35:42.169Z,1007.3
2017-06-23T06:36:43.882Z,1007.3
2017-06-23T06:37:45.559Z,1007.3
2017-06-23T06:38:47.275Z,1007.3
2017-06-23T06:39:48.936Z,1007.3
2017-06-23T06:40:50.600Z,1007.3
2017-06-23T06:41:52.286Z,1007.3
2017-06-23T06:42:53.961Z,1007.4
2017-06-23T06:43:55.634Z,1007.4
2017-06-23T06:44:57.298Z,1007.3
2017-06-23T06:45:58.972Z,1007.3
2017-06-23T06:47:00.624Z,1007.4
2017-06-23T06:48:02.332Z,1007.4
2017-06-23T06:49:03.982Z,1007.4
2017-06-23T06:50:05.649Z,1007.4
2017-06-23T06:51:07.354Z,1007.4
2017-06-23T06:52:09.021Z,1007.4
2017-06-23T06:53:10.716Z,1007.4
2017-06-23T06:54:12.416Z,1007.4
2017-06-23T06:55:14.082Z,1007.3
2017-06-23T06:56:15.737Z,1007.3
2017-06-23T06:57:17.441Z,1007.4
2017-06-23T06:58:19.091Z,1007.4
2017-06-23T06:59:20.760Z,1007.4
2017-06-23T07:00:22.479Z,1007.4
2017-06-23T07:01:24.141Z,1007.4
2017-06-23T07:02:25.839Z,1007.5
2017-06-23T07:03:27.552Z,1007.4
2017-06-23T07:04:29.216Z,1007.6
2017-06-23T07:05:30.884Z,1007.4
2017-06-23T07:06:32.656Z,1007.6
2017-06-23T07:07:34.488Z,1007.5
2017-06-23T07:08:36.144Z,1007.5
2017-06-23T07:09:37.926Z,1007.5
2017-06-23T07:10:39.633Z,1007.5
2017-06-23T07:11:41.387Z,1007.5
2017-06-23T07:12:43.074Z,1007.5
2017-06-23T07:13:44.728Z,1007.5
2017-06-23T07:14:46.379Z,1007.5
2017-06-23T07:15:48.072Z,1007.5
2017-06-23T07:16:49.767Z,1007.5
2017-06-23T07:17:51.412Z,1007.5
2017-06-23T07:18:53.131Z,1007.5
2017-06-23T07:19:54.805Z,1007.5
2017-06-23T07:20:56.464Z,1007.5
2017-06-23T07:21:58.141Z,1007.5
2017-06-23T07:22:59.804Z,1007.5
2017-06-23T07:24:01.493Z,1007.5
2017-06-23T07:25:03.159Z,1007.6
2017-06-23T07:26:04.826Z,1007.5
2017-06-23T07:27:06.499Z,1007.5
2017-06-23T07:28:08.663Z,1007.6
2017-06-23T07:29:10.315Z,1007.6
2017-06-23T07:30:11.975Z,1007.6
2017-06-23T07:31:13.665Z,1007.5
2017-06-23T07:32:15.347Z,1007.6
2017-06-23T07:33:17.022Z,1007.6
2017-06-23T07:34:18.688Z,1007.6
2017-06-23T07:35:20.353Z,1007.6
2017-06-23T07:36:22.023Z,1007.6
2017-06-23T07:37:23.705Z,1007.7
2017-06-23T07:38:25.386Z,1007.7
2017-06-23T07:39:27.045Z,1007.7
2017-06-23T07:40:28.738Z,1007.7
2017-06-23T07:41:30.395Z,1007.6
2017-06-23T07:42:32.068Z,1007.7
2017-06-23T07:43:33.726Z,1007.7
2017-06-23T07:44:35.477Z,1007.6
2017-06-23T07:45:37.146Z,1007.6
2017-06-23T07:46:38.817Z,1007.7
2017-06-23T07:47:40.475Z,1007.7
2017-06-23T07:48:42.150Z,1007.7
2017-06-23T07:49:43.857Z,1007.8
2017-06-23T07:50:45.519Z,1007.8
2017-06-23T07:51:47.219Z,1007.7
2017-06-23T07:52:48.913Z,1007.7
2017-06-23T07:53:50.585Z,1007.8
2017-06-23T07:54:52.268Z,1007.8
2017-06-23T07:55:53.939Z,1007.7
2017-06-23T07:56:55.621Z,1007.8
2017-06-23T07:57:57.281Z,1007.8
2017-06-23T07:58:58.937Z,1007.8
2017-06-23T08:00:00.597Z,1007.8
2017-06-23T08:01:02.252Z,1007.9
2017-06-23T08:02:03.929Z,1007.9
2017-06-23T08:03:05.582Z,1007.9
2017-06-23T08:04:07.263Z,1007.9
2017-06-23T08:05:08.914Z,1007.9
2017-06-23T08:06:10.590Z,1007.8
2017-06-23T08:07:12.249Z,1007.8
2017-06-23T08:08:13.916Z,1007.8
2017-06-23T08:09:15.580Z,1007.9
2017-06-23T08:10:17.274Z,1007.9
2017-06-23T08:11:18.923Z,1007.9
2017-06-23T08:12:20.593Z,1007.9
2017-06-23T08:13:22.238Z,1007.9
2017-06-23T08:14:23.896Z,1007.9
2017-06-23T08:15:25.559Z,1008.1
2017-06-23T08:16:27.239Z,1008.0
2017-06-23T08:17:28.909Z,1008.0
2017-06-23T08:18:30.574Z,1007.9
2017-06-23T08:19:32.241Z,1008.0
2017-06-23T08:20:33.900Z,1008.0
2017-06-23T08:21:35.566Z,1008.0
2017-06-23T08:22:37.231Z,1008.0
2017-06-23T08:23:38.881Z,1008.0
2017-06-23T08:24:40.542Z,1008.0
2017-06-23T08:25:42.197Z,1008.0
2017-06-23T08:26:43.851Z,1008.0
2017-06-23T08:27:45.499Z,1008.0
2017-06-23T08:28:47.192Z,1008.1
2017-06-23T08:29:48.872Z,1008.1
2017-06-23T08:30:50.549Z,1008.0
2017-06-23T08:31:52.239Z,1008.1
2017-06-23T08:32:53.900Z,1008.1
2017-06-23T08:33:55.588Z,1008.2
2017-06-23T08:34:57.310Z,1008.1
2017-06-23T08:35:59.001Z,1008.1
2017-06-23T08:37:00.719Z,1008.1
2017-06-23T08:38:03.244Z,1008.2
2017-06-23T08:39:04.921Z,1008.1
2017-06-23T08:40:06.605Z,1008.1
2017-06-23T08:41:08.278Z,1008.1
2017-06-23T08:42:09.948Z,1008.2
2017-06-23T08:43:11.604Z,1008.2
2017-06-23T08:44:13.277Z,1008.1
2017-06-23T08:45:14.962Z,1008.1
2017-06-23T08:46:16.630Z,1008.2
2017-06-23T08:47:18.318Z,1008.2
2017-06-23T08:48:19.979Z,1008.1
2017-06-23T08:49:21.707Z,1008.2
2017-06-23T08:50:23.333Z,1008.2
2017-06-23T08:51:25.008Z,1008.2
2017-06-23T08:52:26.677Z,1008.3
2017-06-23T08:53:28.354Z,1008.2
2017-06-23T08:54:30.031Z,1008.2
2017-06-23T08:55:31.703Z,1008.2
2017-06-23T08:56:33.371Z,1008.3
2017-06-23T08:57:35.685Z,1008.2
2017-06-23T08:58:37.362Z,1008.2
2017-06-23T08:59:39.075Z,1008.3
2017-06-23T09:00:40.732Z,1008.4
2017-06-23T09:01:42.399Z,1008.4
2017-06-23T09:02:44.247Z,1008.3
2017-06-23T09:03:45.946Z,1008.3
2017-06-23T09:04:47.672Z,1008.3
2017-06-23T09:05:49.339Z,1008.3
2017-06-23T09:06:51.002Z,1008.2
2017-06-23T09:07:52.670Z,1008.3
2017-06-23T09:08:54.331Z,1008.3
2017-06-23T09:09:55.983Z,1008.3
2017-06-23T09:10:57.668Z,1008.3
2017-06-23T09:11:59.358Z,1008.4
2017-06-23T09:13:01.033Z,1008.4
2017-06-23T09:14:02.726Z,1008.3
2017-06-23T09:15:04.400Z,1008.3
2017-06-23T09:16:06.049Z,1008.3
2017-06-23T09:17:07.808Z,1008.4
2017-06-23T09:18:09.467Z,1008.4
2017-06-23T09:19:11.159Z,1008.3
2017-06-23T09:20:12.902Z,1008.4
2017-06-23T09:21:14.566Z,1008.3
2017-06-23T09:22:16.217Z,1008.3
2017-06-23T09:23:17.909Z,1008.4
2017-06-23T09:24:19.580Z,1008.3
2017-06-23T09:25:21.255Z,1008.3
2017-06-23T09:26:22.957Z,1008.3
2017-06-23T09:27:24.705Z,1008.3
2017-06-23T09:28:26.386Z,1008.3
2017-06-23T09:29:28.108Z,1008.3
2017-06-23T09:30:29.795Z,1008.3
2017-06-23T09:31:31.458Z,1008.3
2017-06-23T09:32:33.170Z,1008.3
2017-06-23T09:33:35.767Z,1008.4
2017-06-23T09:34:37.460Z,1008.3
2017-06-23T09:35:39.550Z,1008.4
2017-06-23T09:36:41.439Z,1008.3
2017-06-23T09:37:43.127Z,1008.4
2017-06-23T09:38:44.812Z,1008.3
2017-06-23T09:39:46.468Z,1008.3
2017-06-23T09:40:48.178Z,1008.3
2017-06-23T09:41:49.871Z,1008.3
2017-06-23T09:42:51.557Z,1008.3
2017-06-23T09:43:53.231Z,1008.3
2017-06-23T09:44:55.557Z,1008.1
2017-06-23T09:45:57.350Z,1008.2
2017-06-23T09:46:59.067Z,1008.2
2017-06-23T09:48:00.757Z,1008.2
2017-06-23T09:49:02.471Z,1008.2
2017-06-23T09:50:04.210Z,1008.3
2017-06-23T09:51:05.929Z,1008.2
2017-06-23T09:52:07.704Z,1008.3
2017-06-23T09:53:09.405Z,1008.4
2017-06-23T09:54:11.105Z,1008.3
2017-06-23T09:55:12.834Z,1008.3
2017-06-23T09:56:14.523Z,1008.2
2017-06-23T09:57:16.198Z,1008.3
2017-06-23T09:58:17.957Z,1008.2
2017-06-23T09:59:19.636Z,1008.2
2017-06-23T10:00:21.322Z,1008.3
2017-06-23T10:01:23.018Z,1008.3
2017-06-23T10:02:24.823Z,1008.3
2017-06-23T10:03:27.037Z,1008.3
2017-06-23T10:04:28.712Z,1008.3
2017-06-23T10:05:30.360Z,1008.3
2017-06-23T10:06:32.028Z,1008.3
2017-06-23T10:07:33.715Z,1008.3
2017-06-23T10:08:35.386Z,1008.3
2017-06-23T10:09:37.050Z,1008.3
2017-06-23T10:10:38.722Z,1008.3
2017-06-23T10:11:40.618Z,1008.4
2017-06-23T10:12:42.264Z,1008.4
2017-06-23T10:13:44.579Z,1008.4
2017-06-23T10:14:46.244Z,1008.3
2017-06-23T10:15:47.916Z,1008.4
2017-06-23T10:16:49.974Z,1008.4
2017-06-23T10:17:51.650Z,1008.4
2017-06-23T10:18:53.331Z,1008.4
2017-06-23T10:19:54.995Z,1008.3
2017-06-23T10:20:56.663Z,1008.3
2017-06-23T10:21:58.543Z,1008.3
2017-06-23T10:23:00.372Z,1008.3
2017-06-23T10:24:02.050Z,1008.3
2017-06-23T10:25:03.707Z,1008.3
2017-06-23T10:26:05.399Z,1008.3
2017-06-23T10:27:07.749Z,1008.3
2017-06-23T10:28:09.838Z,1008.3
2017-06-23T10:29:11.506Z,1008.3
2017-06-23T10:30:13.187Z,1008.3
2017-06-23T10:31:14.857Z,1008.2
2017-06-23T10:32:16.530Z,1008.3
2017-06-23T10:33:18.248Z,1008.3
2017-06-23T10:34:19.961Z,1008.3
2017-06-23T10:35:21.851Z,1008.3
2017-06-23T10:36:23.768Z,1008.4
2017-06-23T10:37:25.577Z,1008.4
2017-06-23T10:38:27.244Z,1008.4
2017-06-23T10:39:28.897Z,1008.4
2017-06-23T10:40:30.588Z,1008.4
2017-06-23T10:41:32.261Z,1008.4
2017-06-23T10:42:34.336Z,1008.4
2017-06-23T10:43:36.083Z,1008.5
2017-06-23T10:44:37.756Z,1008.4
2017-06-23T10:45:39.422Z,1008.4
2017-06-23T10:46:41.087Z,1008.4
2017-06-23T10:47:42.912Z,1008.5
2017-06-23T10:48:45.007Z,1008.4
2017-06-23T10:49:47.057Z,1008.3
2017-06-23T10:50:48.701Z,1008.4
2017-06-23T10:51:50.485Z,1008.4
2017-06-23T10:52:52.167Z,1008.4
2017-06-23T10:53:54.287Z,1008.4
2017-06-23T10:54:56.140Z,1008.3
2017-06-23T10:55:57.877Z,1008.4
2017-06-23T10:56:59.544Z,1008.4
2017-06-23T10:58:01.234Z,1008.4
2017-06-23T10:59:03.058Z,1008.4
2017-06-23T11:00:05.162Z,1008.4
2017-06-23T11:01:07.158Z,1008.4
2017-06-23T11:02:09.084Z,1008.3
2017-06-23T11:03:11.123Z,1008.3
2017-06-23T11:04:12.778Z,1008.3
2017-06-23T11:05:14.661Z,1008.3
2017-06-23T11:06:16.320Z,1008.2
2017-06-23T11:07:18.030Z,1008.3
2017-06-23T11:08:20.023Z,1008.3
2017-06-23T11:09:21.914Z,1008.4
2017-06-23T11:10:24.025Z,1008.3
2017-06-23T11:11:25.857Z,1008.3
2017-06-23T11:12:27.544Z,1008.3
2017-06-23T11:13:29.367Z,1008.3
2017-06-23T11:14:31.077Z,1008.3
2017-06-23T11:15:32.792Z,1008.3
2017-06-23T11:16:34.599Z,1008.3
2017-06-23T11:17:36.526Z,1008.3
2017-06-23T11:18:38.195Z,1008.3
2017-06-23T11:19:40.181Z,1008.3
2017-06-23T11:20:41.851Z,1008.4
2017-06-23T11:21:43.625Z,1008.3
2017-06-23T11:22:45.313Z,1008.3
2017-06-23T11:23:46.989Z,1008.4
2017-06-23T11:24:48.671Z,1008.3
2017-06-23T11:25:50.984Z,1008.3
2017-06-23T11:26:52.735Z,1008.3
2017-06-23T11:27:54.394Z,1008.3
2017-06-23T11:28:56.089Z,1008.3
2017-06-23T11:29:58.015Z,1008.3
2017-06-23T11:31:00.359Z,1008.3
2017-06-23T11:32:02.699Z,1008.4
2017-06-23T11:33:04.708Z,1008.3
2017-06-23T11:34:06.846Z,1008.3
2017-06-23T11:35:08.912Z,1008.4
2017-06-23T11:36:11.317Z,1008.3
2017-06-23T11:37:13.589Z,1008.4
2017-06-23T11:38:15.326Z,1008.4
2017-06-23T11:39:17.010Z,1008.4
2017-06-23T11:40:18.684Z,1008.3
2017-06-23T11:41:20.345Z,1008.4
2017-06-23T11:42:22.017Z,1008.3
2017-06-23T11:43:23.702Z,1008.4
2017-06-23T11:44:25.357Z,1008.3
2017-06-23T11:45:27.037Z,1008.4
2017-06-23T11:46:28.709Z,1008.3
2017-06-23T11:47:30.370Z,1008.3
2017-06-23T11:48:32.041Z,1008.3
2017-06-23T11:49:33.768Z,1008.3
2017-06-23T11:50:35.442Z,1008.3
2017-06-23T11:51:37.130Z,1008.3
2017-06-23T11:52:38.834Z,1008.3
2017-06-23T11:53:40.516Z,1008.3
2017-06-23T11:54:42.290Z,1008.3
2017-06-23T11:55:43.985Z,1008.3
2017-06-23T11:56:45.640Z,1008.2
2017-06-23T11:57:47.321Z,1008.3
2017-06-23T11:58:49.007Z,1008.2
2017-06-23T11:59:50.676Z,1008.2
2017-06-23T12:00:52.382Z,1008.2
2017-06-23T12:01:54.079Z,1008.2
2017-06-23T12:02:55.790Z,1008.3
2017-06-23T12:03:57.516Z,1008.2
2017-06-23T12:04:59.276Z,1008.3
2017-06-23T12:06:00.961Z,1008.2
2017-06-23T12:07:02.644Z,1008.2
2017-06-23T12:08:04.370Z,1008.2
2017-06-23T12:09:06.059Z,1008.2
2017-06-23T12:10:08.327Z,1008.2
2017-06-23T12:11:10.011Z,1008.2
2017-06-23T12:12:11.689Z,1008.2
2017-06-23T12:13:13.346Z,1008.2
2017-06-23T12:14:15.032Z,1008.2
2017-06-23T12:15:16.693Z,1008.1
2017-06-23T12:16:18.385Z,1008.2
2017-06-23T12:17:20.042Z,1008.1
2017-06-23T12:18:21.721Z,1008.1
2017-06-23T12:19:23.402Z,1008.1
2017-06-23T12:20:25.069Z,1008.1
2017-06-23T12:21:26.754Z,1008.1
2017-06-23T12:22:28.452Z,1008.1
2017-06-23T12:23:30.120Z,1008.0
2017-06-23T12:24:31.789Z,1008.1
2017-06-23T12:25:33.616Z,1008.1
2017-06-23T12:26:35.288Z,1008.1
2017-06-23T12:27:36.958Z,1008.2
2017-06-23T12:28:38.623Z,1008.2
2017-06-23T12:29:40.310Z,1008.2
2017-06-23T12:30:42.445Z,1008.2
2017-06-23T12:31:44.453Z,1008.3
2017-06-23T12:32:46.114Z,1008.2
2017-06-23T12:33:47.796Z,1008.2
2017-06-23T12:34:49.477Z,1008.2
2017-06-23T12:35:51.142Z,1008.3
2017-06-23T12:36:53.763Z,1008.3
2017-06-23T12:37:55.420Z,1008.4
2017-06-23T12:38:57.127Z,1008.3
2017-06-23T12:39:58.799Z,1008.3
2017-06-23T12:41:00.455Z,1008.3
2017-06-23T12:42:02.111Z,1008.4
2017-06-23T12:43:03.865Z,1008.4
2017-06-23T12:44:05.495Z,1008.3
2017-06-23T12:45:07.152Z,1008.3
2017-06-23T12:46:08.843Z,1008.3
2017-06-23T12:47:10.515Z,1008.3
2017-06-23T12:48:12.183Z,1008.4
2017-06-23T12:49:13.839Z,1008.4
2017-06-23T12:50:15.503Z,1008.4
2017-06-23T12:51:17.181Z,1008.4
2017-06-23T12:52:18.853Z,1008.5
2017-06-23T12:53:20.524Z,1008.4
2017-06-23T12:54:22.190Z,1008.5
2017-06-23T12:55:23.872Z,1008.5
2017-06-23T12:56:25.527Z,1008.5
2017-06-23T12:57:27.205Z,1008.5
2017-06-23T12:58:28.873Z,1008.3
2017-06-23T12:59:30.546Z,1008.3
2017-06-23T13:00:32.229Z,1008.3
2017-06-23T13:01:33.857Z,1008.4
2017-06-23T13:02:36.398Z,1008.3
2017-06-23T13:03:38.084Z,1008.2
2017-06-23T13:04:39.764Z,1008.3
2017-06-23T13:05:41.437Z,1008.3
2017-06-23T13:06:43.120Z,1008.2
2017-06-23T13:07:44.841Z,1008.2
2017-06-23T13:08:46.520Z,1008.3
2017-06-23T13:09:48.204Z,1008.3
2017-06-23T13:10:49.874Z,1008.3
2017-06-23T13:11:51.548Z,1008.3
2017-06-23T13:12:53.198Z,1008.3
2017-06-23T13:13:54.861Z,1008.3
2017-06-23T13:14:57.326Z,1008.3
2017-06-23T13:15:58.999Z,1008.4
2017-06-23T13:17:00.664Z,1008.3
2017-06-23T13:18:02.308Z,1008.3
2017-06-23T13:19:03.986Z,1008.3
2017-06-23T13:20:05.666Z,1008.2
2017-06-23T13:21:07.332Z,1008.3
2017-06-23T13:22:09.007Z,1008.2
2017-06-23T13:23:10.743Z,1008.2
2017-06-23T13:24:12.402Z,1008.3
2017-06-23T13:25:14.850Z,1008.3
2017-06-23T13:26:16.524Z,1008.2
2017-06-23T13:27:18.224Z,1008.3
2017-06-23T13:28:19.867Z,1008.2
2017-06-23T13:29:21.531Z,1008.3
2017-06-23T13:30:23.201Z,1008.4
2017-06-23T13:31:24.877Z,1008.4
2017-06-23T13:32:26.554Z,1008.7
2017-06-23T13:33:28.231Z,1008.6
2017-06-23T13:34:29.910Z,1008.2
2017-06-23T13:35:34.414Z,1008.2
2017-06-23T13:36:36.050Z,1008.3
2017-06-23T13:37:37.754Z,1008.1
2017-06-23T13:38:40.849Z,1008.1
2017-06-23T13:39:42.541Z,1008.1
2017-06-23T13:40:44.214Z,1008.2
2017-06-23T13:41:45.918Z,1008.2
2017-06-23T13:42:47.624Z,1008.1
2017-06-23T13:43:49.331Z,1008.1
2017-06-23T13:44:51.014Z,1008.1
2017-06-23T13:45:52.728Z,1008.2
2017-06-23T13:46:54.417Z,1008.0
2017-06-23T13:47:56.112Z,1008.1
2017-06-23T13:48:57.821Z,1008.2
2017-06-23T13:49:59.757Z,1008.2
2017-06-23T13:51:01.451Z,1008.1
2017-06-23T13:52:07.969Z,1008.1
2017-06-23T13:53:09.658Z,1008.3
2017-06-23T13:54:11.864Z,1008.3
2017-06-23T13:55:13.680Z,1008.2
2017-06-23T13:56:15.343Z,1008.1
2017-06-23T13:57:16.999Z,1008.1
2017-06-23T13:58:18.685Z,1008.2
2017-06-23T13:59:20.375Z,1008.2
2017-06-23T14:00:22.049Z,1008.1
2017-06-23T14:01:23.740Z,1008.1
2017-06-23T14:02:25.398Z,1008.2
2017-06-23T14:03:27.078Z,1008.1
2017-06-23T14:04:28.753Z,1008.1
2017-06-23T14:05:30.433Z,1008.0
2017-06-23T14:06:32.112Z,1008.1
2017-06-23T14:07:33.789Z,1008.1
2017-06-23T14:08:35.464Z,1008.0
2017-06-23T14:09:37.136Z,1008.1
2017-06-23T14:10:38.831Z,1008.1
2017-06-23T14:11:40.495Z,1008.1
2017-06-23T14:12:42.216Z,1008.0
2017-06-23T14:13:43.892Z,1008.0
2017-06-23T14:14:45.573Z,1008.0
2017-06-23T14:15:47.303Z,1008.0